createdAt,value
2019-01-20T00:00:05.165Z,-0.97
2019-01-20T00:01:05.153Z,-1.03
2019-01-20T00:02:05.161Z,-1.00
2019-01-20T00:03:05.134Z,-0.97
2019-01-20T00:04:05.152Z,-0.98
2019-01-20T00:05:05.117Z,-1.03
2019-01-20T00:06:05.101Z,-1.03
2019-01-20T00:07:05.117Z,-1.03
2019-01-20T00:08:05.084Z,-1.04
2019-01-20T00:09:05.073Z,-1.00
2019-01-20T00:10:05.089Z,-1.05
2019-01-20T00:11:05.065Z,-0.98
2019-01-20T00:12:05.038Z,-0.98
2019-01-20T00:13:05.057Z,-1.03
2019-01-20T00:14:05.019Z,-1.03
2019-01-20T00:15:05.032Z,-1.07
2019-01-20T00:16:05.046Z,-1.05
2019-01-20T00:17:04.996Z,-1.03
2019-01-20T00:18:04.988Z,-1.05
2019-01-20T00:19:04.989Z,-1.05
2019-01-20T00:20:04.954Z,-0.98
2019-01-20T00:21:04.943Z,-1.07
2019-01-20T00:22:04.932Z,-1.07
2019-01-20T00:23:04.925Z,-1.07
2019-01-20T00:24:04.946Z,-1.07
2019-01-20T00:25:04.922Z,-1.04
2019-01-20T00:26:04.891Z,-1.07
2019-01-20T00:27:04.912Z,-1.15
2019-01-20T00:28:04.868Z,-1.05
2019-01-20T00:29:04.859Z,-1.05
2019-01-20T00:30:04.880Z,-1.11
2019-01-20T00:31:04.841Z,-1.07
2019-01-20T00:32:04.828Z,-1.03
2019-01-20T00:33:04.825Z,-1.07
2019-01-20T00:34:04.832Z,-1.10
2019-01-20T00:35:04.832Z,-1.08
2019-01-20T00:36:05.043Z,-1.10
2019-01-20T00:37:04.797Z,-1.11
2019-01-20T00:38:04.813Z,-1.07
2019-01-20T00:39:04.765Z,-1.05
2019-01-20T00:40:04.746Z,-1.10
2019-01-20T00:41:04.747Z,-1.13
2019-01-20T00:42:04.746Z,-1.08
2019-01-20T00:43:04.719Z,-1.18
2019-01-20T00:44:04.705Z,-1.11
2019-01-20T00:45:04.700Z,-1.08
2019-01-20T00:46:04.751Z,-1.07
2019-01-20T00:47:04.713Z,-1.16
2019-01-20T00:48:04.664Z,-1.16
2019-01-20T00:49:04.666Z,-1.16
2019-01-20T00:50:04.636Z,-1.18
2019-01-20T00:51:04.630Z,-1.16
2019-01-20T00:52:04.619Z,-1.13
2019-01-20T00:53:04.650Z,-1.29
2019-01-20T00:54:04.628Z,-1.13
2019-01-20T00:55:04.598Z,-1.11
2019-01-20T00:56:04.629Z,-1.28
2019-01-20T00:57:04.627Z,-1.28
2019-01-20T00:58:04.565Z,-1.25
2019-01-20T00:59:04.567Z,-1.33
2019-01-20T01:00:04.539Z,-1.29
2019-01-20T01:01:05.018Z,-1.33
2019-01-20T01:02:04.515Z,-1.26
2019-01-20T01:03:04.528Z,-1.18
2019-01-20T01:04:04.518Z,-1.28
2019-01-20T01:05:04.495Z,-1.31
2019-01-20T01:06:04.507Z,-1.29
2019-01-20T01:07:04.485Z,-1.29
2019-01-20T01:08:04.606Z,-1.28
2019-01-20T01:09:04.584Z,-1.18
2019-01-20T01:10:04.434Z,-1.29
2019-01-20T01:11:04.419Z,-1.22
2019-01-20T01:12:04.472Z,-1.23
2019-01-20T01:13:04.397Z,-1.34
2019-01-20T01:14:04.385Z,-1.28
2019-01-20T01:15:04.373Z,-1.34
2019-01-20T01:16:04.364Z,-1.36
2019-01-20T01:17:04.375Z,-1.33
2019-01-20T01:18:04.361Z,-1.25
2019-01-20T01:19:04.336Z,-1.29
2019-01-20T01:20:04.320Z,-1.29
2019-01-20T01:21:04.308Z,-1.31
2019-01-20T01:22:04.316Z,-1.28
2019-01-20T01:23:04.287Z,-1.41
2019-01-20T01:24:04.281Z,-1.39
2019-01-20T01:25:04.292Z,-1.37
2019-01-20T01:26:04.259Z,-1.36
2019-01-20T01:27:04.264Z,-1.33
2019-01-20T01:28:04.243Z,-1.55
2019-01-20T01:29:04.225Z,-1.49
2019-01-20T01:30:04.212Z,-1.46
2019-01-20T01:31:04.226Z,-1.55
2019-01-20T01:32:04.211Z,-1.51
2019-01-20T01:33:04.204Z,-1.52
2019-01-20T01:34:04.170Z,-1.49
2019-01-20T01:35:04.170Z,-1.52
2019-01-20T01:36:04.152Z,-1.55
2019-01-20T01:37:04.250Z,-1.54
2019-01-20T01:38:04.263Z,-1.55
2019-01-20T01:39:08.177Z,-1.49
2019-01-20T01:40:12.676Z,-1.51
2019-01-20T01:41:04.101Z,-1.65
2019-01-20T01:42:04.108Z,-1.61
2019-01-20T01:43:04.119Z,-1.62
2019-01-20T01:44:04.067Z,-1.58
2019-01-20T01:45:04.161Z,-1.61
2019-01-20T01:46:04.044Z,-1.64
2019-01-20T01:47:04.033Z,-1.61
2019-01-20T01:48:04.050Z,-1.62
2019-01-20T01:49:04.013Z,-1.62
2019-01-20T01:50:04.003Z,-1.61
2019-01-20T01:51:03.997Z,-1.69
2019-01-20T01:52:04.010Z,-1.62
2019-01-20T01:53:04.006Z,-1.69
2019-01-20T01:54:04.011Z,-1.65
2019-01-20T01:55:04.027Z,-1.70
2019-01-20T01:56:03.944Z,-1.70
2019-01-20T01:57:03.929Z,-1.73
2019-01-20T01:58:03.927Z,-1.70
2019-01-20T01:59:03.928Z,-1.62
2019-01-20T02:00:03.898Z,-1.67
2019-01-20T02:01:03.895Z,-1.64
2019-01-20T02:02:03.896Z,-1.75
2019-01-20T02:03:03.896Z,-1.73
2019-01-20T02:04:03.872Z,-1.78
2019-01-20T02:05:03.847Z,-1.75
2019-01-20T02:06:03.837Z,-1.78
2019-01-20T02:07:03.823Z,-1.72
2019-01-20T02:08:03.817Z,-1.70
2019-01-20T02:09:03.826Z,-1.85
2019-01-20T02:10:03.815Z,-1.83
2019-01-20T02:11:03.804Z,-1.76
2019-01-20T02:12:03.865Z,-1.86
2019-01-20T02:13:03.756Z,-1.83
2019-01-20T02:14:03.765Z,-1.85
2019-01-20T02:15:03.736Z,-1.82
2019-01-20T02:16:03.723Z,-1.88
2019-01-20T02:17:03.714Z,-1.96
2019-01-20T02:18:03.703Z,-1.94
2019-01-20T02:19:03.725Z,-1.94
2019-01-20T02:20:03.683Z,-1.90
2019-01-20T02:21:03.673Z,-1.90
2019-01-20T02:22:03.673Z,-1.86
2019-01-20T02:23:03.654Z,-1.85
2019-01-20T02:24:03.638Z,-1.93
2019-01-20T02:25:03.648Z,-1.90
2019-01-20T02:26:03.627Z,-1.97
2019-01-20T02:27:03.610Z,-1.97
2019-01-20T02:28:03.602Z,-1.96
2019-01-20T02:29:03.597Z,-1.94
2019-01-20T02:30:03.607Z,-1.94
2019-01-20T02:31:03.624Z,-1.96
2019-01-20T02:32:03.634Z,-1.94
2019-01-20T02:33:03.609Z,-1.93
2019-01-20T02:34:03.543Z,-1.91
2019-01-20T02:35:12.151Z,-1.94
2019-01-20T02:36:03.510Z,-1.97
2019-01-20T02:37:03.506Z,-1.96
2019-01-20T02:38:03.530Z,-1.96
2019-01-20T02:39:03.484Z,-1.90
2019-01-20T02:40:03.477Z,-1.94
2019-01-20T02:41:03.508Z,-1.90
2019-01-20T02:42:03.450Z,-1.93
2019-01-20T02:43:03.443Z,-1.96
2019-01-20T02:44:03.430Z,-1.85
2019-01-20T02:45:03.420Z,-2.00
2019-01-20T02:46:03.439Z,-2.01
2019-01-20T02:47:03.405Z,-2.00
2019-01-20T02:48:03.397Z,-2.00
2019-01-20T02:49:03.385Z,-1.94
2019-01-20T02:50:03.365Z,-1.97
2019-01-20T02:51:03.376Z,-2.03
2019-01-20T02:52:03.359Z,-2.00
2019-01-20T02:53:03.338Z,-2.03
2019-01-20T02:54:03.367Z,-1.97
2019-01-20T02:55:03.514Z,-2.03
2019-01-20T02:56:03.328Z,-1.97
2019-01-20T02:57:03.295Z,-2.03
2019-01-20T02:58:03.296Z,-2.00
2019-01-20T02:59:03.281Z,-1.97
2019-01-20T03:00:03.259Z,-2.01
2019-01-20T03:01:03.246Z,-2.04
2019-01-20T03:02:03.261Z,-2.00
2019-01-20T03:03:03.235Z,-2.08
2019-01-20T03:04:03.215Z,-2.00
2019-01-20T03:05:03.205Z,-2.00
2019-01-20T03:06:03.195Z,-2.01
2019-01-20T03:07:03.209Z,-2.01
2019-01-20T03:08:03.190Z,-1.93
2019-01-20T03:09:03.170Z,-1.96
2019-01-20T03:10:03.158Z,-2.04
2019-01-20T03:11:03.144Z,-2.06
2019-01-20T03:12:03.808Z,-2.06
2019-01-20T03:13:03.144Z,-2.08
2019-01-20T03:14:03.113Z,-1.98
2019-01-20T03:15:03.102Z,-1.96
2019-01-20T03:16:03.117Z,-1.97
2019-01-20T03:17:03.102Z,-2.04
2019-01-20T03:18:03.070Z,-2.01
2019-01-20T03:19:03.062Z,-2.04
2019-01-20T03:20:03.056Z,-2.06
2019-01-20T03:21:03.114Z,-1.98
2019-01-20T03:22:03.062Z,-2.04
2019-01-20T03:23:03.019Z,-2.04
2019-01-20T03:24:03.056Z,-1.98
2019-01-20T03:25:03.058Z,-2.06
2019-01-20T03:26:03.024Z,-1.97
2019-01-20T03:27:03.014Z,-2.11
2019-01-20T03:28:02.976Z,-1.97
2019-01-20T03:29:02.987Z,-1.97
2019-01-20T03:30:02.949Z,-2.01
2019-01-20T03:31:02.942Z,-2.03
2019-01-20T03:32:03.026Z,-2.00
2019-01-20T03:33:02.977Z,-2.03
2019-01-20T03:34:02.933Z,-2.06
2019-01-20T03:35:02.909Z,-2.04
2019-01-20T03:36:02.882Z,-2.12
2019-01-20T03:37:02.917Z,-2.09
2019-01-20T03:38:02.884Z,-2.03
2019-01-20T03:39:02.878Z,-2.11
2019-01-20T03:40:02.842Z,-2.19
2019-01-20T03:41:02.830Z,-2.18
2019-01-20T03:42:02.815Z,-2.26
2019-01-20T03:43:02.835Z,-2.26
2019-01-20T03:44:02.801Z,-2.26
2019-01-20T03:45:02.796Z,-2.22
2019-01-20T03:46:02.815Z,-2.19
2019-01-20T03:47:02.768Z,-2.26
2019-01-20T03:48:02.779Z,-2.30
2019-01-20T03:49:02.754Z,-2.22
2019-01-20T03:50:02.766Z,-2.22
2019-01-20T03:51:02.735Z,-2.29
2019-01-20T03:52:02.717Z,-2.27
2019-01-20T03:53:02.719Z,-2.37
2019-01-20T03:54:02.750Z,-2.26
2019-01-20T03:55:02.717Z,-2.34
2019-01-20T03:56:02.691Z,-2.33
2019-01-20T03:57:02.666Z,-2.35
2019-01-20T03:58:02.670Z,-2.34
2019-01-20T03:59:02.679Z,-2.34
2019-01-20T04:00:02.627Z,-2.38
2019-01-20T04:01:02.618Z,-2.34
2019-01-20T04:02:02.619Z,-2.33
2019-01-20T04:03:02.613Z,-2.33
2019-01-20T04:04:02.649Z,-2.30
2019-01-20T04:05:02.587Z,-2.30
2019-01-20T04:06:02.603Z,-2.35
2019-01-20T04:07:02.625Z,-2.34
2019-01-20T04:08:02.601Z,-2.33
2019-01-20T04:09:02.573Z,-2.30
2019-01-20T04:10:02.531Z,-2.37
2019-01-20T04:11:02.520Z,-2.29
2019-01-20T04:12:02.504Z,-2.30
2019-01-20T04:13:02.546Z,-2.34
2019-01-20T04:14:02.538Z,-2.35
2019-01-20T04:15:02.465Z,-2.34
2019-01-20T04:16:02.461Z,-2.37
2019-01-20T04:17:02.445Z,-2.34
2019-01-20T04:18:02.440Z,-2.34
2019-01-20T04:19:02.449Z,-2.33
2019-01-20T04:20:02.417Z,-2.35
2019-01-20T04:21:02.403Z,-2.34
2019-01-20T04:22:02.461Z,-2.34
2019-01-20T04:23:02.396Z,-2.29
2019-01-20T04:24:02.389Z,-2.34
2019-01-20T04:25:02.374Z,-2.29
2019-01-20T04:26:02.422Z,-2.30
2019-01-20T04:27:02.343Z,-2.34
2019-01-20T04:28:02.332Z,-2.35
2019-01-20T04:29:02.351Z,-2.34
2019-01-20T04:30:02.309Z,-2.35
2019-01-20T04:31:09.868Z,-2.27
2019-01-20T04:32:02.340Z,-2.34
2019-01-20T04:33:02.280Z,-2.34
2019-01-20T04:34:02.335Z,-2.29
2019-01-20T04:35:02.261Z,-2.35
2019-01-20T04:36:02.253Z,-2.35
2019-01-20T04:37:02.269Z,-2.29
2019-01-20T04:38:02.229Z,-2.30
2019-01-20T04:39:02.220Z,-2.30
2019-01-20T04:40:02.302Z,-2.35
2019-01-20T04:41:02.201Z,-2.33
2019-01-20T04:42:02.232Z,-2.34
2019-01-20T04:43:02.171Z,-2.41
2019-01-20T04:44:02.181Z,-2.37
2019-01-20T04:45:02.234Z,-2.38
2019-01-20T04:46:02.176Z,-2.29
2019-01-20T04:47:02.172Z,-2.35
2019-01-20T04:48:02.126Z,-2.48
2019-01-20T04:49:02.121Z,-2.43
2019-01-20T04:50:02.158Z,-2.43
2019-01-20T04:51:02.114Z,-2.46
2019-01-20T04:52:02.083Z,-2.41
2019-01-20T04:53:02.074Z,-2.38
2019-01-20T04:54:02.075Z,-2.43
2019-01-20T04:55:02.089Z,-2.43
2019-01-20T04:56:02.064Z,-2.46
2019-01-20T04:57:02.029Z,-2.46
2019-01-20T04:58:02.019Z,-2.51
2019-01-20T04:59:02.044Z,-2.48
2019-01-20T05:00:01.995Z,-2.46
2019-01-20T05:01:01.988Z,-2.48
2019-01-20T05:02:02.006Z,-2.43
2019-01-20T05:03:01.979Z,-2.46
2019-01-20T05:04:01.971Z,-2.43
2019-01-20T05:05:01.953Z,-2.49
2019-01-20T05:06:01.982Z,-2.49
2019-01-20T05:07:02.003Z,-2.45
2019-01-20T05:08:01.909Z,-2.45
2019-01-20T05:09:01.913Z,-2.40
2019-01-20T05:10:01.887Z,-2.41
2019-01-20T05:11:01.914Z,-2.43
2019-01-20T05:12:01.905Z,-2.37
2019-01-20T05:13:01.856Z,-2.48
2019-01-20T05:14:01.848Z,-2.46
2019-01-20T05:15:01.854Z,-2.48
2019-01-20T05:16:01.826Z,-2.38
2019-01-20T05:17:01.861Z,-2.43
2019-01-20T05:18:01.815Z,-2.46
2019-01-20T05:19:01.795Z,-2.54
2019-01-20T05:20:01.825Z,-2.49
2019-01-20T05:21:01.793Z,-2.51
2019-01-20T05:22:01.767Z,-2.45
2019-01-20T05:23:01.804Z,-2.52
2019-01-20T05:24:01.749Z,-2.51
2019-01-20T05:25:01.731Z,-2.58
2019-01-20T05:26:01.720Z,-2.52
2019-01-20T05:27:01.759Z,-2.56
2019-01-20T05:28:12.669Z,-2.56
2019-01-20T05:29:01.711Z,-2.59
2019-01-20T05:30:01.681Z,-2.52
2019-01-20T05:31:09.232Z,-2.56
2019-01-20T05:32:01.661Z,-2.54
2019-01-20T05:33:01.644Z,-2.59
2019-01-20T05:34:01.670Z,-2.54
2019-01-20T05:35:01.671Z,-2.59
2019-01-20T05:36:01.619Z,-2.58
2019-01-20T05:37:01.720Z,-2.58
2019-01-20T05:38:01.591Z,-2.58
2019-01-20T05:39:01.604Z,-2.56
2019-01-20T05:40:01.611Z,-2.59
2019-01-20T05:41:01.583Z,-2.58
2019-01-20T05:42:01.553Z,-2.64
2019-01-20T05:43:01.597Z,-2.58
2019-01-20T05:44:01.552Z,-2.64
2019-01-20T05:45:01.541Z,-2.66
2019-01-20T05:46:01.514Z,-2.52
2019-01-20T05:47:01.498Z,-2.66
2019-01-20T05:48:01.488Z,-2.58
2019-01-20T05:49:01.537Z,-2.58
2019-01-20T05:50:01.472Z,-2.56
2019-01-20T05:51:01.460Z,-2.56
2019-01-20T05:52:01.444Z,-2.61
2019-01-20T05:53:01.436Z,-2.61
2019-01-20T05:54:01.426Z,-2.64
2019-01-20T05:55:01.457Z,-2.56
2019-01-20T05:56:02.021Z,-2.58
2019-01-20T05:57:01.391Z,-2.59
2019-01-20T05:58:01.381Z,-2.58
2019-01-20T05:59:01.388Z,-2.61
2019-01-20T06:00:01.368Z,-2.66
2019-01-20T06:01:01.421Z,-2.61
2019-01-20T06:02:01.354Z,-2.61
2019-01-20T06:03:01.332Z,-2.63
2019-01-20T06:04:01.355Z,-2.59
2019-01-20T06:05:01.312Z,-2.63
2019-01-20T06:06:01.303Z,-2.64
2019-01-20T06:07:01.285Z,-2.70
2019-01-20T06:08:01.312Z,-2.73
2019-01-20T06:09:01.298Z,-2.66
2019-01-20T06:10:01.258Z,-2.70
2019-01-20T06:11:01.269Z,-2.72
2019-01-20T06:12:01.238Z,-2.67
2019-01-20T06:13:01.227Z,-2.69
2019-01-20T06:14:01.215Z,-2.67
2019-01-20T06:15:01.231Z,-2.70
2019-01-20T06:16:01.268Z,-2.73
2019-01-20T06:17:01.179Z,-2.67
2019-01-20T06:18:01.169Z,-2.70
2019-01-20T06:19:01.174Z,-2.73
2019-01-20T06:20:01.158Z,-2.76
2019-01-20T06:21:01.181Z,-2.70
2019-01-20T06:22:01.140Z,-2.66
2019-01-20T06:23:01.124Z,-2.76
2019-01-20T06:24:01.108Z,-2.79
2019-01-20T06:25:01.100Z,-2.69
2019-01-20T06:26:01.127Z,-2.74
2019-01-20T06:27:01.194Z,-2.77
2019-01-20T06:28:01.077Z,-2.79
2019-01-20T06:29:01.060Z,-2.76
2019-01-20T06:30:01.063Z,-2.72
2019-01-20T06:31:01.079Z,-2.77
2019-01-20T06:32:01.048Z,-2.70
2019-01-20T06:33:01.017Z,-2.76
2019-01-20T06:34:01.049Z,-2.76
2019-01-20T06:35:00.997Z,-2.79
2019-01-20T06:36:00.980Z,-2.79
2019-01-20T06:37:01.003Z,-2.84
2019-01-20T06:38:00.965Z,-2.72
2019-01-20T06:39:00.956Z,-2.74
2019-01-20T06:40:00.943Z,-2.84
2019-01-20T06:41:00.942Z,-2.80
2019-01-20T06:42:00.941Z,-2.77
2019-01-20T06:43:02.041Z,-2.80
2019-01-20T06:44:00.909Z,-2.79
2019-01-20T06:45:00.908Z,-2.76
2019-01-20T06:46:00.876Z,-2.79
2019-01-20T06:47:01.194Z,-2.85
2019-01-20T06:48:00.913Z,-2.80
2019-01-20T06:49:00.861Z,-2.77
2019-01-20T06:50:00.844Z,-2.82
2019-01-20T06:51:00.824Z,-2.77
2019-01-20T06:52:00.875Z,-2.77
2019-01-20T06:53:00.804Z,-2.84
2019-01-20T06:54:00.801Z,-2.76
2019-01-20T06:55:00.787Z,-2.82
2019-01-20T06:56:00.772Z,-2.76
2019-01-20T06:57:00.779Z,-2.76
2019-01-20T06:58:00.754Z,-2.77
2019-01-20T06:59:00.831Z,-2.82
2019-01-20T07:00:00.728Z,-2.76
2019-01-20T07:01:00.717Z,-2.82
2019-01-20T07:02:00.732Z,-2.73
2019-01-20T07:03:00.769Z,-2.80
2019-01-20T07:04:00.693Z,-2.82
2019-01-20T07:05:00.677Z,-2.79
2019-01-20T07:06:00.682Z,-2.73
2019-01-20T07:07:00.658Z,-2.79
2019-01-20T07:08:00.674Z,-2.79
2019-01-20T07:09:00.678Z,-2.82
2019-01-20T07:10:00.626Z,-2.80
2019-01-20T07:11:00.637Z,-2.79
2019-01-20T07:12:00.676Z,-2.76
2019-01-20T07:13:00.610Z,-2.77
2019-01-20T07:14:00.593Z,-2.73
2019-01-20T07:15:00.591Z,-2.79
2019-01-20T07:16:00.576Z,-2.82
2019-01-20T07:17:00.559Z,-2.80
2019-01-20T07:18:00.566Z,-2.84
2019-01-20T07:19:00.560Z,-2.79
2019-01-20T07:20:00.551Z,-2.88
2019-01-20T07:21:00.508Z,-2.77
2019-01-20T07:22:00.506Z,-2.73
2019-01-20T07:23:00.488Z,-2.95
2019-01-20T07:24:00.556Z,-2.87
2019-01-20T07:25:00.478Z,-2.73
2019-01-20T07:26:00.457Z,-2.87
2019-01-20T07:27:00.451Z,-2.87
2019-01-20T07:28:00.436Z,-2.85
2019-01-20T07:29:00.516Z,-2.82
2019-01-20T07:30:00.500Z,-2.87
2019-01-20T07:31:00.422Z,-2.87
2019-01-20T07:32:00.395Z,-2.84
2019-01-20T07:33:00.395Z,-2.79
2019-01-20T07:34:00.372Z,-2.88
2019-01-20T07:35:00.426Z,-2.77
2019-01-20T07:36:00.383Z,-2.79
2019-01-20T07:37:00.349Z,-2.79
2019-01-20T07:38:00.330Z,-2.73
2019-01-20T07:39:00.322Z,-2.76
2019-01-20T07:40:00.332Z,-2.79
2019-01-20T07:41:00.332Z,-2.74
2019-01-20T07:42:00.293Z,-2.80
2019-01-20T07:43:00.321Z,-2.73
2019-01-20T07:44:00.304Z,-2.79
2019-01-20T07:45:00.283Z,-2.77
2019-01-20T07:46:00.251Z,-2.77
2019-01-20T07:47:00.343Z,-2.82
2019-01-20T07:48:00.300Z,-2.82
2019-01-20T07:49:00.215Z,-2.77
2019-01-20T07:50:00.254Z,-2.72
2019-01-20T07:51:00.195Z,-2.79
2019-01-20T07:52:00.238Z,-2.70
2019-01-20T07:53:00.180Z,-2.74
2019-01-20T07:54:00.172Z,-2.74
2019-01-20T07:55:00.174Z,-2.69
2019-01-20T07:56:00.162Z,-2.67
2019-01-20T07:57:00.176Z,-2.72
2019-01-20T07:58:00.140Z,-2.72
2019-01-20T07:59:00.113Z,-2.70
2019-01-20T08:00:00.241Z,-2.73
2019-01-20T08:01:00.123Z,-2.64
2019-01-20T08:02:00.125Z,-2.69
2019-01-20T08:03:00.121Z,-2.66
2019-01-20T08:04:00.059Z,-2.64
2019-01-20T08:05:00.239Z,-2.61
2019-01-20T08:06:00.061Z,-2.58
2019-01-20T08:07:00.071Z,-2.69
2019-01-20T08:08:00.021Z,-2.63
2019-01-20T08:09:00.015Z,-2.55
2019-01-20T08:09:59.999Z,-2.61
2019-01-20T08:11:00.066Z,-2.56
2019-01-20T08:11:59.972Z,-2.64
2019-01-20T08:12:59.966Z,-2.56
2019-01-20T08:13:59.985Z,-2.54
2019-01-20T08:14:59.947Z,-2.51
2019-01-20T08:15:59.942Z,-2.48
2019-01-20T08:16:59.948Z,-2.51
2019-01-20T08:17:59.958Z,-2.54
2019-01-20T08:18:59.900Z,-2.49
2019-01-20T08:20:07.439Z,-2.54
2019-01-20T08:20:59.897Z,-2.55
2019-01-20T08:21:59.891Z,-2.49
2019-01-20T08:22:59.874Z,-2.56
2019-01-20T08:23:59.852Z,-2.54
2019-01-20T08:24:59.839Z,-2.52
2019-01-20T08:25:59.826Z,-2.52
2019-01-20T08:26:59.932Z,-2.49
2019-01-20T08:27:59.844Z,-2.43
2019-01-20T08:28:59.859Z,-2.46
2019-01-20T08:29:59.822Z,-2.51
2019-01-20T08:30:59.791Z,-2.41
2019-01-20T08:31:59.799Z,-2.48
2019-01-20T08:32:59.778Z,-2.46
2019-01-20T08:33:59.744Z,-2.40
2019-01-20T08:34:59.732Z,-2.43
2019-01-20T08:35:59.764Z,-2.35
2019-01-20T08:36:59.714Z,-2.43
2019-01-20T08:37:59.804Z,-2.41
2019-01-20T08:38:59.707Z,-2.37
2019-01-20T08:39:59.717Z,-2.35
2019-01-20T08:40:59.665Z,-2.43
2019-01-20T08:41:59.661Z,-2.41
2019-01-20T08:42:59.671Z,-2.40
2019-01-20T08:43:59.653Z,-2.35
2019-01-20T08:44:59.625Z,-2.35
2019-01-20T08:45:59.621Z,-2.30
2019-01-20T08:46:59.603Z,-2.27
2019-01-20T08:47:59.699Z,-2.33
2019-01-20T08:48:59.618Z,-2.29
2019-01-20T08:50:00.100Z,-2.35
2019-01-20T08:50:59.563Z,-2.35
2019-01-20T08:51:59.605Z,-2.33
2019-01-20T08:52:59.562Z,-2.34
2019-01-20T08:53:59.554Z,-2.30
2019-01-20T08:54:59.611Z,-2.21
2019-01-20T08:55:59.610Z,-2.21
2019-01-20T08:56:59.509Z,-2.15
2019-01-20T08:57:59.496Z,-2.21
2019-01-20T08:58:59.556Z,-2.24
2019-01-20T08:59:59.499Z,-2.24
2019-01-20T09:00:59.458Z,-2.18
2019-01-20T09:01:59.454Z,-2.22
2019-01-20T09:02:59.495Z,-2.18
2019-01-20T09:04:09.032Z,-2.19
2019-01-20T09:04:59.426Z,-2.15
2019-01-20T09:05:59.404Z,-2.26
2019-01-20T09:06:59.394Z,-2.24
2019-01-20T09:07:59.381Z,-2.21
2019-01-20T09:08:59.376Z,-2.24
2019-01-20T09:09:59.388Z,-2.24
2019-01-20T09:10:59.400Z,-2.21
2019-01-20T09:11:59.374Z,-2.11
2019-01-20T09:12:59.333Z,-2.18
2019-01-20T09:13:59.331Z,-2.12
2019-01-20T09:14:59.337Z,-2.01
2019-01-20T09:15:59.326Z,-2.14
2019-01-20T09:16:59.298Z,-2.03
2019-01-20T09:17:59.312Z,-1.93
2019-01-20T09:18:59.268Z,-1.98
2019-01-20T09:19:59.257Z,-1.98
2019-01-20T09:20:59.277Z,-1.98
2019-01-20T09:21:59.239Z,-2.01
2019-01-20T09:22:59.225Z,-1.97
2019-01-20T09:23:59.226Z,-1.94
2019-01-20T09:24:59.211Z,-1.93
2019-01-20T09:25:59.210Z,-1.94
2019-01-20T09:26:59.192Z,-1.94
2019-01-20T09:27:59.175Z,-1.93
2019-01-20T09:28:59.165Z,-1.88
2019-01-20T09:29:59.154Z,-1.82
2019-01-20T09:30:59.172Z,-1.83
2019-01-20T09:31:59.136Z,-1.79
2019-01-20T09:32:59.131Z,-1.80
2019-01-20T09:33:59.129Z,-1.75
2019-01-20T09:34:59.096Z,-1.72
2019-01-20T09:35:59.140Z,-1.78
2019-01-20T09:36:59.081Z,-1.72
2019-01-20T09:37:59.096Z,-1.67
2019-01-20T09:38:59.078Z,-1.59
2019-01-20T09:39:59.072Z,-1.72
2019-01-20T09:40:59.061Z,-1.62
2019-01-20T09:41:59.029Z,-1.62
2019-01-20T09:42:59.041Z,-1.72
2019-01-20T09:43:59.021Z,-1.78
2019-01-20T09:44:58.992Z,-1.73
2019-01-20T09:45:58.993Z,-1.67
2019-01-20T09:46:59.022Z,-1.69
2019-01-20T09:47:58.979Z,-1.65
2019-01-20T09:48:58.953Z,-1.62
2019-01-20T09:49:58.938Z,-1.61
2019-01-20T09:50:58.939Z,-1.59
2019-01-20T09:51:58.952Z,-1.61
2019-01-20T09:53:07.467Z,-1.57
2019-01-20T09:53:58.901Z,-1.57
2019-01-20T09:54:58.885Z,-1.61
2019-01-20T09:55:58.882Z,-1.54
2019-01-20T09:56:58.975Z,-1.55
2019-01-20T09:57:58.906Z,-1.52
2019-01-20T09:58:58.845Z,-1.52
2019-01-20T09:59:58.841Z,-1.51
2019-01-20T10:00:58.830Z,-1.44
2019-01-20T10:01:58.818Z,-1.49
2019-01-20T10:02:58.873Z,-1.49
2019-01-20T10:03:58.790Z,-1.37
2019-01-20T10:04:58.819Z,-1.37
2019-01-20T10:05:58.795Z,-1.34
2019-01-20T10:06:58.771Z,-1.31
2019-01-20T10:07:58.774Z,-1.26
2019-01-20T10:08:58.740Z,-1.39
2019-01-20T10:09:58.735Z,-1.23
2019-01-20T10:10:58.721Z,-1.36
2019-01-20T10:11:58.710Z,-1.37
2019-01-20T10:12:58.767Z,-1.36
2019-01-20T10:13:58.687Z,-1.37
2019-01-20T10:14:58.708Z,-1.33
2019-01-20T10:15:58.667Z,-1.22
2019-01-20T10:16:58.660Z,-1.18
2019-01-20T10:17:58.657Z,-1.16
2019-01-20T10:18:58.661Z,-1.19
2019-01-20T10:19:58.629Z,-1.13
2019-01-20T10:20:58.667Z,-1.08
2019-01-20T10:21:58.604Z,-1.07
2019-01-20T10:22:58.616Z,-1.05
2019-01-20T10:23:58.579Z,-1.07
2019-01-20T10:24:58.589Z,-1.00
2019-01-20T10:25:58.558Z,-0.94
2019-01-20T10:26:58.579Z,-1.00
2019-01-20T10:27:58.536Z,-0.95
2019-01-20T10:28:58.540Z,-0.92
2019-01-20T10:29:58.540Z,-0.89
2019-01-20T10:30:58.509Z,-0.90
2019-01-20T10:31:58.503Z,-0.81
2019-01-20T10:32:58.497Z,-0.85
2019-01-20T10:33:58.474Z,-0.89
2019-01-20T10:34:58.490Z,-0.92
2019-01-20T10:35:58.494Z,-0.90
2019-01-20T10:36:58.458Z,-0.75
2019-01-20T10:37:58.454Z,-0.76
2019-01-20T10:38:58.421Z,-0.78
2019-01-20T10:39:58.437Z,-0.75
2019-01-20T10:40:58.421Z,-0.75
2019-01-20T10:41:58.396Z,-0.64
2019-01-20T10:42:58.407Z,-0.70
2019-01-20T10:44:02.253Z,-0.70
2019-01-20T10:44:58.367Z,-0.58
2019-01-20T10:45:58.370Z,-0.60
2019-01-20T10:46:58.373Z,-0.67
2019-01-20T10:47:58.349Z,-0.63
2019-01-20T10:48:58.358Z,-0.57
2019-01-20T10:49:58.627Z,-0.67
2019-01-20T10:50:58.333Z,-0.52
2019-01-20T10:51:58.285Z,-0.55
2019-01-20T10:52:58.302Z,-0.58
2019-01-20T10:53:58.262Z,-0.52
2019-01-20T10:54:58.255Z,-0.50
2019-01-20T10:55:58.265Z,-0.49
2019-01-20T10:56:58.233Z,-0.47
2019-01-20T10:57:58.242Z,-0.46
2019-01-20T10:58:58.217Z,-0.38
2019-01-20T10:59:58.199Z,-0.39
2019-01-20T11:00:58.213Z,-0.34
2019-01-20T11:01:58.218Z,-0.31
2019-01-20T11:02:58.173Z,-0.42
2019-01-20T11:03:58.178Z,-0.45
2019-01-20T11:04:58.146Z,-0.38
2019-01-20T11:05:58.135Z,-0.46
2019-01-20T11:06:58.143Z,-0.42
2019-01-20T11:07:58.115Z,-0.35
2019-01-20T11:08:58.108Z,-0.39
2019-01-20T11:09:58.092Z,-0.31
2019-01-20T11:10:58.108Z,-0.43
2019-01-20T11:11:58.090Z,-0.40
2019-01-20T11:12:58.065Z,-0.39
2019-01-20T11:13:58.062Z,-0.34
2019-01-20T11:14:58.053Z,-0.31
2019-01-20T11:15:58.053Z,-0.32
2019-01-20T11:16:58.039Z,-0.28
2019-01-20T11:17:58.041Z,-0.24
2019-01-20T11:18:58.008Z,-0.31
2019-01-20T11:19:57.995Z,-0.24
2019-01-20T11:20:58.015Z,-0.17
2019-01-20T11:21:58.004Z,-0.14
2019-01-20T11:22:57.962Z,-0.27
2019-01-20T11:23:57.953Z,-0.13
2019-01-20T11:24:57.936Z,-0.10
2019-01-20T11:25:57.928Z,-0.14
2019-01-20T11:26:57.939Z,-0.13
2019-01-20T11:27:57.903Z,-0.10
2019-01-20T11:28:57.921Z,-0.16
2019-01-20T11:29:57.889Z,-0.20
2019-01-20T11:30:57.897Z,-0.10
2019-01-20T11:31:57.867Z,-0.07
2019-01-20T11:32:57.852Z,-0.01
2019-01-20T11:33:57.846Z,0.02
2019-01-20T11:34:57.829Z,-0.07
2019-01-20T11:35:57.845Z,-0.06
2019-01-20T11:36:57.813Z,-0.03
2019-01-20T11:37:57.798Z,-0.01
2019-01-20T11:38:57.920Z,-0.03
2019-01-20T11:39:57.779Z,-0.01
2019-01-20T11:40:57.803Z,-0.04
2019-01-20T11:41:57.773Z,-0.01
2019-01-20T11:42:57.742Z,0.00
2019-01-20T11:43:57.758Z,-0.03
2019-01-20T11:44:57.718Z,-0.01
2019-01-20T11:45:57.711Z,0.07
2019-01-20T11:46:57.702Z,0.00
2019-01-20T11:47:57.708Z,0.02
2019-01-20T11:48:57.687Z,0.02
2019-01-20T11:49:57.669Z,0.08
2019-01-20T11:50:57.656Z,0.04
2019-01-20T11:51:57.773Z,0.09
2019-01-20T11:52:57.657Z,0.14
2019-01-20T11:53:57.639Z,0.20
2019-01-20T11:54:57.617Z,0.18
2019-01-20T11:55:57.650Z,0.26
2019-01-20T11:56:57.610Z,0.20
2019-01-20T11:57:57.582Z,0.29
2019-01-20T11:58:57.591Z,0.26
2019-01-20T11:59:57.607Z,0.40
2019-01-20T12:00:57.589Z,0.26
2019-01-20T12:01:57.553Z,0.41
2019-01-20T12:02:57.533Z,0.40
2019-01-20T12:03:57.549Z,0.55
2019-01-20T12:04:57.521Z,0.47
2019-01-20T12:05:57.494Z,0.44
2019-01-20T12:06:57.484Z,0.53
2019-01-20T12:07:57.475Z,0.51
2019-01-20T12:08:57.527Z,0.56
2019-01-20T12:09:57.461Z,0.44
2019-01-20T12:10:57.457Z,0.43
2019-01-20T12:11:57.435Z,0.43
2019-01-20T12:12:57.428Z,0.53
2019-01-20T12:13:57.431Z,0.69
2019-01-20T12:14:57.418Z,0.50
2019-01-20T12:15:57.397Z,0.55
2019-01-20T12:16:57.412Z,0.60
2019-01-20T12:17:57.384Z,0.50
2019-01-20T12:18:57.379Z,0.60
2019-01-20T12:19:57.355Z,0.60
2019-01-20T12:20:57.396Z,0.62
2019-01-20T12:22:04.886Z,0.56
2019-01-20T12:22:57.313Z,0.62
2019-01-20T12:23:57.321Z,0.67
2019-01-20T12:24:57.291Z,0.67
2019-01-20T12:25:57.282Z,0.59
2019-01-20T12:26:57.278Z,0.53
2019-01-20T12:27:57.268Z,0.66
2019-01-20T12:28:57.275Z,0.66
2019-01-20T12:29:57.240Z,0.63
2019-01-20T12:30:57.230Z,0.66
2019-01-20T12:31:57.235Z,0.64
2019-01-20T12:32:57.235Z,0.72
2019-01-20T12:33:57.243Z,0.67
2019-01-20T12:34:57.189Z,0.76
2019-01-20T12:35:57.178Z,0.74
2019-01-20T12:36:57.169Z,0.81
2019-01-20T12:37:57.168Z,0.76
2019-01-20T12:38:57.144Z,0.72
2019-01-20T12:39:57.159Z,0.73
2019-01-20T12:40:57.122Z,0.80
2019-01-20T12:41:57.116Z,0.84
2019-01-20T12:42:57.105Z,0.81
2019-01-20T12:43:57.097Z,0.81
2019-01-20T12:44:57.099Z,0.81
2019-01-20T12:45:57.083Z,0.85
2019-01-20T12:46:57.064Z,0.90
2019-01-20T12:47:57.053Z,0.88
2019-01-20T12:48:57.039Z,0.91
2019-01-20T12:49:57.054Z,0.92
2019-01-20T12:50:57.019Z,0.99
2019-01-20T12:51:57.010Z,0.98
2019-01-20T12:52:57.004Z,0.96
2019-01-20T12:53:56.984Z,0.96
2019-01-20T12:54:57.018Z,1.02